createdAt,value
2018-10-16T00:01:45.273Z,13.30
2018-10-16T00:03:47.361Z,13.20
2018-10-16T00:05:49.457Z,13.10
2018-10-16T00:07:51.557Z,13.10
2018-10-16T00:09:53.657Z,13.00
2018-10-16T00:11:58.362Z,12.90
2018-10-16T00:14:00.469Z,12.70
2018-10-16T00:16:02.587Z,12.80
2018-10-16T00:18:05.021Z,12.90
2018-10-16T00:20:07.176Z,12.90
2018-10-16T00:22:09.283Z,12.90
2018-10-16T00:24:11.401Z,13.00
2018-10-16T00:26:13.474Z,13.00
2018-10-16T00:28:15.581Z,13.00
2018-10-16T00:30:17.697Z,13.00
2018-10-16T00:32:19.804Z,12.90
2018-10-16T00:34:21.906Z,12.90
2018-10-16T00:36:24.012Z,12.90
2018-10-16T00:38:26.117Z,12.80
2018-10-16T00:40:28.231Z,12.80
2018-10-16T00:42:30.324Z,12.80
2018-10-16T00:44:32.457Z,12.80
2018-10-16T00:46:34.612Z,12.60
2018-10-16T00:48:36.720Z,12.60
2018-10-16T00:50:38.843Z,12.60
2018-10-16T00:52:40.931Z,12.60
2018-10-16T00:54:43.057Z,12.50
2018-10-16T00:56:45.167Z,12.40
2018-10-16T00:58:47.261Z,12.40
2018-10-16T01:00:49.348Z,12.30
2018-10-16T01:02:51.452Z,12.30
2018-10-16T01:04:53.598Z,12.30
2018-10-16T01:06:55.832Z,12.30
2018-10-16T01:08:58.310Z,12.30
2018-10-16T01:11:00.915Z,12.30
2018-10-16T01:13:03.310Z,12.40
2018-10-16T01:15:06.727Z,12.30
2018-10-16T01:17:08.936Z,12.30
2018-10-16T01:19:11.174Z,12.20
2018-10-16T01:21:13.381Z,12.20
2018-10-16T01:23:15.669Z,12.20
2018-10-16T01:25:18.511Z,12.30
2018-10-16T01:27:20.659Z,12.30
2018-10-16T01:29:22.894Z,12.40
2018-10-16T01:31:25.074Z,12.40
2018-10-16T01:33:28.345Z,12.30
2018-10-16T01:35:30.662Z,12.40
2018-10-16T01:37:33.029Z,12.40
2018-10-16T01:39:35.555Z,12.30
2018-10-16T01:41:38.038Z,12.40
2018-10-16T01:43:40.545Z,12.40
2018-10-16T01:45:43.284Z,12.40
2018-10-16T01:47:45.879Z,12.30
2018-10-16T01:49:48.244Z,12.30
2018-10-16T01:51:51.744Z,12.10
2018-10-16T01:53:54.502Z,12.00
2018-10-16T01:55:57.139Z,12.10
2018-10-16T01:57:59.599Z,12.10
2018-10-16T02:00:02.544Z,12.10
2018-10-16T02:02:05.619Z,12.10
2018-10-16T02:04:08.331Z,12.10
2018-10-16T02:06:11.078Z,12.10
2018-10-16T02:08:13.825Z,12.20
2018-10-16T02:10:16.199Z,12.20
2018-10-16T02:12:18.495Z,12.20
2018-10-16T02:14:20.865Z,12.20
2018-10-16T02:16:23.464Z,12.10
2018-10-16T02:18:25.960Z,12.10
2018-10-16T02:20:28.436Z,12.20
2018-10-16T02:22:30.853Z,12.20
2018-10-16T02:24:33.552Z,12.10
2018-10-16T02:26:36.755Z,12.10
2018-10-16T02:28:39.030Z,12.00
2018-10-16T02:30:41.318Z,11.90
2018-10-16T02:32:43.576Z,11.90
2018-10-16T02:34:46.021Z,11.90
2018-10-16T02:36:48.885Z,11.90
2018-10-16T02:38:51.963Z,11.90
2018-10-16T02:40:54.378Z,12.00
2018-10-16T02:42:56.804Z,12.00
2018-10-16T02:44:59.163Z,12.00
2018-10-16T02:47:01.579Z,12.00
2018-10-16T02:49:04.339Z,12.00
2018-10-16T02:51:07.068Z,12.00
2018-10-16T02:53:09.520Z,12.00
2018-10-16T02:55:11.891Z,12.00
2018-10-16T02:57:14.326Z,12.10
2018-10-16T02:59:16.884Z,12.00
2018-10-16T03:01:19.614Z,12.00
2018-10-16T03:03:22.310Z,12.00
2018-10-16T03:05:24.908Z,12.00
2018-10-16T03:07:27.657Z,11.90
2018-10-16T03:09:30.162Z,11.90
2018-10-16T03:11:32.656Z,11.80
2018-10-16T03:13:35.059Z,11.80
2018-10-16T03:15:37.250Z,11.90
2018-10-16T03:17:39.707Z,11.90
2018-10-16T03:19:41.907Z,11.90
2018-10-16T03:21:44.356Z,11.90
2018-10-16T03:23:46.743Z,11.80
2018-10-16T03:25:49.040Z,11.80
2018-10-16T03:27:51.205Z,11.70
2018-10-16T03:29:53.598Z,11.60
2018-10-16T03:31:55.946Z,11.50
2018-10-16T03:33:58.101Z,11.50
2018-10-16T03:36:00.310Z,11.50
2018-10-16T03:38:02.501Z,11.50
2018-10-16T03:40:04.778Z,11.60
2018-10-16T03:42:07.134Z,11.60
2018-10-16T03:44:10.641Z,11.70
2018-10-16T03:46:12.831Z,11.60
2018-10-16T03:48:15.012Z,11.70
2018-10-16T03:50:17.522Z,11.60
2018-10-16T03:52:19.971Z,11.60
2018-10-16T03:54:22.203Z,11.70
2018-10-16T03:56:25.282Z,11.70
2018-10-16T03:58:27.741Z,11.70
2018-10-16T04:00:30.191Z,11.70
2018-10-16T04:02:33.546Z,11.70
2018-10-16T04:04:35.987Z,11.70
2018-10-16T04:06:38.353Z,11.70
2018-10-16T04:08:40.907Z,11.80
2018-10-16T04:10:43.441Z,11.80
2018-10-16T04:12:45.934Z,11.80
2018-10-16T04:14:48.331Z,11.80
2018-10-16T04:16:50.692Z,11.70
2018-10-16T04:18:53.023Z,11.70
2018-10-16T04:20:55.450Z,11.60
2018-10-16T04:22:58.583Z,11.60
2018-10-16T04:25:01.248Z,11.60
2018-10-16T04:27:03.849Z,11.50
2018-10-16T04:29:06.568Z,11.50
2018-10-16T04:31:10.139Z,11.50
2018-10-16T04:33:12.310Z,11.40
2018-10-16T04:35:16.505Z,11.40
2018-10-16T04:37:18.843Z,11.30
2018-10-16T04:39:21.356Z,11.20
2018-10-16T04:41:23.819Z,11.20
2018-10-16T04:43:26.488Z,11.20
2018-10-16T04:45:28.887Z,11.20
2018-10-16T04:47:31.440Z,11.10
2018-10-16T04:49:34.037Z,11.10
2018-10-16T04:51:36.907Z,11.00
2018-10-16T04:53:39.452Z,11.00
2018-10-16T04:55:41.590Z,11.00
2018-10-16T04:57:43.650Z,11.10
2018-10-16T04:59:45.806Z,11.10
2018-10-16T05:01:48.060Z,11.00
2018-10-16T05:03:54.595Z,11.00
2018-10-16T05:05:57.371Z,11.00
2018-10-16T05:07:59.611Z,11.00
2018-10-16T05:10:01.724Z,11.00
2018-10-16T05:12:03.880Z,10.90
2018-10-16T05:14:06.181Z,10.90
2018-10-16T05:16:09.373Z,10.90
2018-10-16T05:18:11.512Z,11.00
2018-10-16T05:20:13.624Z,11.00
2018-10-16T05:22:15.833Z,11.10
2018-10-16T05:24:17.981Z,11.00
2018-10-16T05:26:20.067Z,11.00
2018-10-16T05:28:22.238Z,11.00
2018-10-16T05:30:24.482Z,11.00
2018-10-16T05:32:26.595Z,11.10
2018-10-16T05:34:28.814Z,11.10
2018-10-16T05:36:30.926Z,11.00
2018-10-16T05:38:33.120Z,11.00
2018-10-16T05:40:35.241Z,11.00
2018-10-16T05:42:38.097Z,11.00
2018-10-16T05:44:40.250Z,10.90
2018-10-16T05:46:42.555Z,10.90
2018-10-16T05:48:44.746Z,10.90
2018-10-16T05:50:46.865Z,10.90
2018-10-16T05:52:49.037Z,10.90
2018-10-16T05:54:51.768Z,11.00
2018-10-16T05:56:53.927Z,11.00
2018-10-16T05:58:56.089Z,11.00
2018-10-16T06:00:58.222Z,11.10
2018-10-16T06:03:00.361Z,11.10
2018-10-16T06:05:02.467Z,11.10
2018-10-16T06:07:04.727Z,11.00
2018-10-16T06:09:07.027Z,11.00
2018-10-16T06:11:09.122Z,11.10
2018-10-16T06:13:11.259Z,11.10
2018-10-16T06:15:14.082Z,11.10
2018-10-16T06:17:16.185Z,11.00
2018-10-16T06:19:18.327Z,11.00
2018-10-16T06:21:20.549Z,11.00
2018-10-16T06:23:22.998Z,10.90
2018-10-16T06:25:25.291Z,10.90
2018-10-16T06:27:27.507Z,10.80
2018-10-16T06:29:29.747Z,10.80
2018-10-16T06:31:32.092Z,10.90
2018-10-16T06:33:34.344Z,11.00
2018-10-16T06:35:40.863Z,11.00
2018-10-16T06:37:44.831Z,11.10
2018-10-16T06:39:56.987Z,11.20
2018-10-16T06:41:59.137Z,11.30
2018-10-16T06:44:01.635Z,11.40
2018-10-16T06:46:04.727Z,11.40
2018-10-16T06:48:08.167Z,11.40
2018-10-16T06:50:10.691Z,11.60
2018-10-16T06:52:13.580Z,11.60
2018-10-16T06:54:16.113Z,11.80
2018-10-16T06:56:18.810Z,11.80
2018-10-16T06:58:21.199Z,11.90
2018-10-16T07:03:26.250Z,12.20
2018-10-16T07:05:29.919Z,12.50
2018-10-16T07:07:42.552Z,12.60
2018-10-16T07:09:44.811Z,12.80
2018-10-16T07:11:49.073Z,13.00
2018-10-16T07:13:51.273Z,13.20
2018-10-16T07:15:53.509Z,13.50
2018-10-16T07:17:55.731Z,13.70
2018-10-16T07:19:57.872Z,14.40
2018-10-16T07:22:00.146Z,15.00
2018-10-16T07:24:02.373Z,15.40
2018-10-16T07:26:04.942Z,15.80
2018-10-16T07:28:07.157Z,16.20
2018-10-16T07:30:12.067Z,16.50
2018-10-16T07:32:14.254Z,16.70
2018-10-16T07:34:17.439Z,16.80
2018-10-16T07:36:19.590Z,17.40
2018-10-16T07:38:21.828Z,17.70
2018-10-16T07:40:23.876Z,17.70
2018-10-16T07:42:26.061Z,17.80
2018-10-16T07:44:28.284Z,18.00
2018-10-16T07:46:30.452Z,17.90
2018-10-16T07:48:32.684Z,17.50
2018-10-16T07:50:34.796Z,17.50
2018-10-16T07:52:51.042Z,17.50
2018-10-16T07:54:53.521Z,17.20
2018-10-16T07:56:56.325Z,17.80
2018-10-16T07:58:59.146Z,18.30
2018-10-16T08:01:01.508Z,18.80
2018-10-16T08:03:04.977Z,19.40
2018-10-16T08:07:22.947Z,20.40
2018-10-16T08:09:27.753Z,19.90
2018-10-16T08:11:31.588Z,20.60
2018-10-16T08:13:33.870Z,20.80
2018-10-16T08:15:36.221Z,21.20
2018-10-16T08:17:39.029Z,21.50
2018-10-16T08:19:41.497Z,21.30
2018-10-16T08:21:44.884Z,21.30
2018-10-16T08:23:47.202Z,20.80
2018-10-16T08:25:49.581Z,20.60
2018-10-16T08:27:51.784Z,20.40
2018-10-16T08:29:53.977Z,20.20
2018-10-16T08:31:56.140Z,20.10
2018-10-16T08:33:58.265Z,20.00
2018-10-16T08:36:00.450Z,20.00
2018-10-16T08:40:14.930Z,20.00
2018-10-16T08:43:28.237Z,19.90
2018-10-16T08:45:41.987Z,19.90
2018-10-16T08:47:56.394Z,20.00
2018-10-16T08:50:10.167Z,20.00
2018-10-16T08:52:14.417Z,20.00
2018-10-16T08:54:16.601Z,20.00
2018-10-16T08:56:18.777Z,20.10
2018-10-16T08:58:20.965Z,20.00
2018-10-16T09:00:23.202Z,20.00
2018-10-16T09:02:25.422Z,20.00
2018-10-16T09:04:28.076Z,19.90
2018-10-16T09:06:30.720Z,19.80
2018-10-16T09:08:32.842Z,19.70
2018-10-16T09:10:34.972Z,19.70
2018-10-16T09:12:37.135Z,19.60
2018-10-16T09:14:39.271Z,19.50
2018-10-16T09:16:41.514Z,19.40
2018-10-16T09:18:43.710Z,19.30
2018-10-16T09:20:51.489Z,19.20
2018-10-16T09:22:53.805Z,19.10
2018-10-16T09:24:56.091Z,19.00
2018-10-16T09:26:58.293Z,18.90
2018-10-16T09:29:00.853Z,18.80
2018-10-16T09:31:03.074Z,18.70
2018-10-16T09:33:05.209Z,18.60
2018-10-16T09:35:09.030Z,18.50
2018-10-16T09:37:11.153Z,18.50
2018-10-16T09:39:13.410Z,18.40
2018-10-16T09:41:15.565Z,18.30
2018-10-16T09:43:17.822Z,18.20
2018-10-16T09:45:19.986Z,18.10
2018-10-16T09:47:22.253Z,18.00
2018-10-16T09:49:24.893Z,18.00
2018-10-16T09:51:27.897Z,18.00
2018-10-16T09:53:35.110Z,17.90
2018-10-16T09:55:41.874Z,17.80
2018-10-16T09:57:49.649Z,17.90
2018-10-16T09:59:56.110Z,17.90
2018-10-16T10:01:58.964Z,17.90
2018-10-16T10:04:04.148Z,18.00
2018-10-16T10:06:10.129Z,18.10
2018-10-16T10:08:14.041Z,18.30
2018-10-16T10:10:20.030Z,18.50
2018-10-16T10:12:23.065Z,18.70
2018-10-16T10:14:27.248Z,18.80
2018-10-16T10:30:15.830Z,19.20
2018-10-16T10:32:18.463Z,19.30
2018-10-16T10:34:21.050Z,19.30
2018-10-16T10:36:23.447Z,19.30
2018-10-16T10:38:31.411Z,19.30
2018-10-16T10:40:37.740Z,19.20
2018-10-16T10:42:41.071Z,19.20
2018-10-16T10:44:47.333Z,19.10
2018-10-16T10:46:49.900Z,19.00
2018-10-16T10:48:52.556Z,18.90
2018-10-16T11:04:23.323Z,18.60
2018-10-16T11:06:26.790Z,18.00
2018-10-16T11:08:29.505Z,17.90
2018-10-16T11:10:32.157Z,17.80
2018-10-16T11:12:34.778Z,17.80
2018-10-16T11:14:37.436Z,17.70
2018-10-16T11:16:40.138Z,17.70
2018-10-16T11:18:42.766Z,17.60
2018-10-16T11:20:45.453Z,17.60
2018-10-16T11:22:48.166Z,17.50
2018-10-16T11:24:50.852Z,17.50
2018-10-16T11:26:53.362Z,17.50
2018-10-16T11:28:56.125Z,17.50
2018-10-16T11:30:58.857Z,17.50
2018-10-16T11:33:01.526Z,17.50
2018-10-16T11:35:04.022Z,17.60
2018-10-16T11:37:06.795Z,17.60
2018-10-16T11:39:11.750Z,17.60
2018-10-16T11:41:18.894Z,17.70
2018-10-16T11:43:21.587Z,17.80
2018-10-16T11:45:24.253Z,18.00
2018-10-16T11:47:26.965Z,18.00
2018-10-16T11:49:29.783Z,18.10
2018-10-16T11:51:32.575Z,18.20
2018-10-16T11:53:35.678Z,18.40
2018-10-16T11:55:38.710Z,18.40
2018-10-16T11:57:44.963Z,18.60
2018-10-16T11:59:59.503Z,18.80
2018-10-16T12:05:39.425Z,19.30
2018-10-16T12:07:43.276Z,19.40
2018-10-16T12:09:47.731Z,19.60
2018-10-16T12:11:54.217Z,21.00
2018-10-16T12:14:01.732Z,21.80
2018-10-16T12:16:35.299Z,21.60
2018-10-16T12:18:48.273Z,22.30
2018-10-16T12:21:25.056Z,22.50
2018-10-16T12:23:28.036Z,22.40
2018-10-16T12:25:42.484Z,22.30
2018-10-16T12:27:48.099Z,22.10
2018-10-16T12:30:01.077Z,21.90
2018-10-16T12:32:05.286Z,21.80
2018-10-16T12:34:07.863Z,21.50
2018-10-16T12:36:10.227Z,21.30
2018-10-16T12:38:13.239Z,21.20
2018-10-16T12:40:15.817Z,21.10
2018-10-16T12:42:19.746Z,20.90
2018-10-16T12:44:22.756Z,20.90
2018-10-16T12:46:25.524Z,21.00
2018-10-16T12:48:28.604Z,20.90
2018-10-16T12:50:31.057Z,20.80
2018-10-16T12:52:33.427Z,20.80
2018-10-16T12:54:35.920Z,20.70
2018-10-16T12:56:38.098Z,21.50
2018-10-16T12:58:40.337Z,21.00
2018-10-16T13:00:42.593Z,20.90
2018-10-16T13:02:44.758Z,20.70
2018-10-16T13:04:47.122Z,20.60
2018-10-16T13:06:49.253Z,20.50
2018-10-16T13:09:01.447Z,20.30
2018-10-16T13:11:03.755Z,20.20
2018-10-16T13:13:05.860Z,20.20
2018-10-16T13:15:09.542Z,20.10
2018-10-16T13:17:11.713Z,20.10
2018-10-16T13:19:13.905Z,20.30
2018-10-16T13:21:16.013Z,20.20
2018-10-16T13:23:18.214Z,20.20
2018-10-16T13:25:20.297Z,20.10
2018-10-16T13:27:22.409Z,20.10
2018-10-16T13:29:24.590Z,20.00
2018-10-16T13:31:26.782Z,20.00
2018-10-16T13:33:28.883Z,20.00
2018-10-16T13:35:30.985Z,20.00
2018-10-16T13:37:33.085Z,20.00
2018-10-16T13:39:35.310Z,19.90
2018-10-16T13:41:37.433Z,19.90
2018-10-16T13:43:39.538Z,20.00
2018-10-16T13:45:41.649Z,19.90
2018-10-16T13:47:43.783Z,19.80
2018-10-16T13:49:45.937Z,19.80
2018-10-16T13:51:48.101Z,19.80
2018-10-16T13:53:50.186Z,19.70
2018-10-16T13:55:52.383Z,19.60
2018-10-16T13:57:54.508Z,19.60
2018-10-16T13:59:56.601Z,19.60
2018-10-16T14:01:58.729Z,19.50
2018-10-16T14:04:00.852Z,19.40
2018-10-16T14:06:02.920Z,19.40
2018-10-16T14:08:05.357Z,19.40
2018-10-16T14:10:08.702Z,19.30
2018-10-16T14:12:10.754Z,19.30
2018-10-16T14:14:13.029Z,19.30
2018-10-16T14:16:15.062Z,19.30
2018-10-16T14:18:17.137Z,19.30
2018-10-16T14:20:19.290Z,19.30
2018-10-16T14:22:21.401Z,19.30
2018-10-16T14:24:24.350Z,19.30
2018-10-16T14:26:26.557Z,19.40
2018-10-16T14:28:28.610Z,19.30
2018-10-16T14:30:30.693Z,19.30
2018-10-16T14:32:32.827Z,19.20
2018-10-16T14:34:35.126Z,19.20
2018-10-16T14:36:37.102Z,19.10
2018-10-16T14:38:39.198Z,19.00
2018-10-16T14:40:41.389Z,19.00
2018-10-16T14:42:43.562Z,18.90
2018-10-16T14:44:45.638Z,18.90
2018-10-16T14:46:47.750Z,18.90
2018-10-16T14:48:49.849Z,18.80
2018-10-16T14:50:51.949Z,18.70
2018-10-16T14:52:54.073Z,18.70
2018-10-16T14:54:56.166Z,18.70
2018-10-16T14:56:58.282Z,18.60
2018-10-16T14:59:00.361Z,18.60
2018-10-16T15:01:14.744Z,18.50
2018-10-16T15:03:45.955Z,18.50
2018-10-16T15:06:13.323Z,18.40
2018-10-16T15:08:15.842Z,18.40
2018-10-16T15:10:17.962Z,18.30
2018-10-16T15:12:24.746Z,18.30
2018-10-16T15:14:26.987Z,18.30
2018-10-16T15:16:29.168Z,18.20
2018-10-16T15:18:31.269Z,18.20
2018-10-16T15:20:33.393Z,18.10
2018-10-16T15:22:35.502Z,18.10
2018-10-16T15:24:37.662Z,18.00
2018-10-16T15:26:39.727Z,18.00
2018-10-16T15:28:41.849Z,18.00
2018-10-16T15:30:44.035Z,18.00
2018-10-16T15:32:46.272Z,17.90
2018-10-16T15:34:48.342Z,17.90
2018-10-16T15:36:50.492Z,17.90
2018-10-16T15:38:52.819Z,17.90
2018-10-16T15:40:55.207Z,17.90
2018-10-16T15:42:57.392Z,17.90
2018-10-16T15:44:59.614Z,17.90
2018-10-16T15:47:01.782Z,17.90
2018-10-16T15:49:04.042Z,17.90
2018-10-16T15:51:06.049Z,17.90
2018-10-16T15:53:08.249Z,17.80
2018-10-16T15:55:10.994Z,17.80
2018-10-16T15:57:13.156Z,17.80
2018-10-16T15:59:15.372Z,17.80
2018-10-16T16:01:17.494Z,17.80
2018-10-16T16:03:19.772Z,17.80
2018-10-16T16:05:21.994Z,17.80
2018-10-16T16:07:24.140Z,17.70
2018-10-16T16:09:26.292Z,17.70
2018-10-16T16:11:28.437Z,17.70
2018-10-16T16:13:30.580Z,17.70
2018-10-16T16:15:32.763Z,17.70
2018-10-16T16:17:34.915Z,17.70
2018-10-16T16:19:37.151Z,17.70
2018-10-16T16:21:39.309Z,17.70
2018-10-16T16:23:41.480Z,17.60
2018-10-16T16:25:43.666Z,17.60
2018-10-16T16:27:45.813Z,17.60
2018-10-16T16:29:47.993Z,17.50
2018-10-16T16:31:50.116Z,17.50
2018-10-16T16:33:52.247Z,17.50
2018-10-16T16:35:54.436Z,17.50
2018-10-16T16:37:57.881Z,17.50
2018-10-16T16:40:00.031Z,17.50
2018-10-16T16:42:02.208Z,17.40
2018-10-16T16:44:04.644Z,17.40
2018-10-16T16:46:06.871Z,17.30
2018-10-16T16:48:09.003Z,17.30
2018-10-16T16:50:12.714Z,17.20
2018-10-16T16:52:14.729Z,17.20
2018-10-16T16:54:16.820Z,17.20
2018-10-16T16:56:18.908Z,17.10
2018-10-16T16:58:20.988Z,17.10
2018-10-16T17:00:23.074Z,17.10
2018-10-16T17:02:25.190Z,17.10
2018-10-16T17:04:27.252Z,17.10
2018-10-16T17:06:29.592Z,17.00
2018-10-16T17:08:31.870Z,17.00
2018-10-16T17:10:33.970Z,17.00
2018-10-16T17:12:37.147Z,17.00
2018-10-16T17:14:39.368Z,16.90
2018-10-16T17:16:41.487Z,16.90
2018-10-16T17:18:43.552Z,16.90
2018-10-16T17:20:45.673Z,16.90
2018-10-16T17:22:47.737Z,16.90
2018-10-16T17:24:49.943Z,16.90
2018-10-16T17:26:52.150Z,16.90
2018-10-16T17:28:54.171Z,16.90
2018-10-16T17:30:56.274Z,16.90
2018-10-16T17:32:58.406Z,16.90
2018-10-16T17:35:00.469Z,16.80
2018-10-16T17:37:02.589Z,16.80
2018-10-16T17:39:06.289Z,16.80
2018-10-16T17:41:08.451Z,16.80
2018-10-16T17:43:10.539Z,16.80
2018-10-16T17:45:14.106Z,16.80
2018-10-16T17:47:16.137Z,16.70
2018-10-16T17:49:18.246Z,16.60
2018-10-16T17:51:20.361Z,16.70
2018-10-16T17:53:22.449Z,16.70
2018-10-16T17:55:24.630Z,16.60
2018-10-16T17:57:27.025Z,16.70
2018-10-16T17:59:29.114Z,16.70
2018-10-16T18:01:31.415Z,16.70
2018-10-16T18:03:33.491Z,16.70
2018-10-16T18:05:35.599Z,16.70
2018-10-16T18:07:37.720Z,16.70
2018-10-16T18:09:39.817Z,16.70
2018-10-16T18:11:42.130Z,16.70
2018-10-16T18:13:44.233Z,16.70
2018-10-16T18:15:46.320Z,16.70
2018-10-16T18:17:48.433Z,16.60
2018-10-16T18:19:50.514Z,16.60
2018-10-16T18:21:52.610Z,16.60
2018-10-16T18:23:54.819Z,16.60
2018-10-16T18:25:56.800Z,16.60
2018-10-16T18:27:58.883Z,16.60
2018-10-16T18:30:00.982Z,16.60
2018-10-16T18:32:03.082Z,16.60
2018-10-16T18:34:05.237Z,16.60
2018-10-16T18:36:07.343Z,16.60
2018-10-16T18:38:09.468Z,16.60
2018-10-16T18:40:12.115Z,16.60
2018-10-16T18:42:14.205Z,16.60
2018-10-16T18:44:16.277Z,16.50
2018-10-16T18:46:18.376Z,16.50
2018-10-16T18:48:20.481Z,16.50
2018-10-16T18:50:22.581Z,16.50
2018-10-16T18:52:24.694Z,16.50
2018-10-16T18:54:27.024Z,16.50
2018-10-16T18:56:29.416Z,16.50
2018-10-16T18:58:31.818Z,16.50
2018-10-16T19:00:33.901Z,16.50
2018-10-16T19:02:36.023Z,16.50
2018-10-16T19:04:38.117Z,16.40
2018-10-16T19:06:40.221Z,16.40
2018-10-16T19:08:42.346Z,16.40
2018-10-16T19:10:48.690Z,16.40
2018-10-16T19:12:51.184Z,16.40
2018-10-16T19:14:53.618Z,16.40
2018-10-16T19:16:57.527Z,16.40
2018-10-16T19:19:10.211Z,16.40
2018-10-16T19:21:13.215Z,16.40
2018-10-16T19:23:16.167Z,16.40
2018-10-16T19:25:22.922Z,16.40
2018-10-16T19:27:25.553Z,16.40
2018-10-16T19:29:38.110Z,16.40
2018-10-16T19:31:41.033Z,16.40
2018-10-16T19:33:43.514Z,16.40
2018-10-16T19:35:45.956Z,16.30
2018-10-16T19:37:48.233Z,16.30
2018-10-16T19:39:50.533Z,16.20
2018-10-16T19:41:53.023Z,16.20
2018-10-16T19:43:55.636Z,16.20
2018-10-16T19:45:58.348Z,16.10
2018-10-16T19:48:00.857Z,16.10
2018-10-16T19:50:03.398Z,16.10
2018-10-16T19:52:07.918Z,16.10
2018-10-16T19:54:10.656Z,16.10
2018-10-16T19:56:13.446Z,16.10
2018-10-16T19:58:16.832Z,16.10
2018-10-16T20:00:19.487Z,16.00
2018-10-16T20:02:21.880Z,16.10
2018-10-16T20:04:25.267Z,16.00
2018-10-16T20:06:27.795Z,16.00
2018-10-16T20:08:30.633Z,15.90
2018-10-16T20:10:35.485Z,15.90
2018-10-16T20:12:38.325Z,15.90
2018-10-16T20:14:41.002Z,15.90
2018-10-16T20:16:43.759Z,15.90
2018-10-16T20:18:46.270Z,15.90
2018-10-16T20:20:48.892Z,15.90
2018-10-16T20:22:51.458Z,15.80
2018-10-16T20:24:54.085Z,15.80
2018-10-16T20:26:56.363Z,15.80
2018-10-16T20:28:58.728Z,15.70
2018-10-16T20:31:01.247Z,15.60
2018-10-16T20:33:03.633Z,15.50
2018-10-16T20:35:05.896Z,15.60
2018-10-16T20:37:08.177Z,15.50
2018-10-16T20:39:12.139Z,15.50
2018-10-16T20:41:14.453Z,15.50
2018-10-16T20:43:16.817Z,15.50
2018-10-16T20:45:18.999Z,15.50
2018-10-16T20:47:21.276Z,15.40
2018-10-16T20:49:23.518Z,15.40
2018-10-16T20:51:26.039Z,15.30
2018-10-16T20:53:28.647Z,15.30
2018-10-16T20:55:31.104Z,15.30
2018-10-16T20:57:33.938Z,15.30
2018-10-16T20:59:36.765Z,15.30
2018-10-16T21:01:39.215Z,15.30
2018-10-16T21:03:44.813Z,15.30
2018-10-16T21:05:47.272Z,15.20
2018-10-16T21:07:49.542Z,15.20
2018-10-16T21:09:52.242Z,15.10
2018-10-16T21:11:55.172Z,15.10
2018-10-16T21:13:57.961Z,15.00
2018-10-16T21:16:00.469Z,14.90
2018-10-16T21:18:02.791Z,14.70
2018-10-16T21:20:07.014Z,14.60
2018-10-16T21:22:10.716Z,14.60
2018-10-16T21:24:13.309Z,14.60
2018-10-16T21:26:15.930Z,14.60
2018-10-16T21:28:18.313Z,14.60
2018-10-16T21:30:20.975Z,14.50
2018-10-16T21:32:24.181Z,14.40
2018-10-16T21:34:26.378Z,14.40
2018-10-16T21:36:28.644Z,14.40
2018-10-16T21:38:30.958Z,14.40
2018-10-16T21:40:33.358Z,14.40
2018-10-16T21:42:35.761Z,14.40
2018-10-16T21:44:38.129Z,14.40
2018-10-16T21:46:40.549Z,14.40
2018-10-16T21:48:42.748Z,14.30
2018-10-16T21:50:45.141Z,14.20
2018-10-16T21:52:47.914Z,14.20
2018-10-16T21:54:50.410Z,14.20
2018-10-16T21:56:52.869Z,14.10
2018-10-16T21:58:55.322Z,14.10
2018-10-16T22:01:03.164Z,14.00
2018-10-16T22:03:06.123Z,13.90
2018-10-16T22:05:08.623Z,13.90
2018-10-16T22:07:11.176Z,13.90
2018-10-16T22:09:14.534Z,13.90
2018-10-16T22:11:17.038Z,13.80
2018-10-16T22:13:19.310Z,13.80
2018-10-16T22:15:21.705Z,13.80
2018-10-16T22:17:24.012Z,13.70
2018-10-16T22:19:26.409Z,13.60
2018-10-16T22:21:29.084Z,13.60
2018-10-16T22:23:31.472Z,13.60
2018-10-16T22:25:33.897Z,13.60
2018-10-16T22:27:36.480Z,13.60
2018-10-16T22:29:38.841Z,13.50
2018-10-16T22:31:40.921Z,13.60
2018-10-16T22:33:43.115Z,13.50
2018-10-16T22:35:45.270Z,13.40
2018-10-16T22:37:47.436Z,13.40
2018-10-16T22:39:49.696Z,13.40
2018-10-16T22:41:51.874Z,13.40
2018-10-16T22:43:54.149Z,13.40
2018-10-16T22:45:56.409Z,13.30
2018-10-16T22:47:58.594Z,13.40
2018-10-16T22:50:00.855Z,13.40
2018-10-16T22:52:03.263Z,13.40
2018-10-16T22:54:05.645Z,13.40
2018-10-16T22:56:07.928Z,13.30
2018-10-16T22:58:10.361Z,13.30
2018-10-16T23:00:15.236Z,13.30
2018-10-16T23:02:17.453Z,13.30
2018-10-16T23:04:19.633Z,13.30
2018-10-16T23:06:21.858Z,13.30
2018-10-16T23:08:24.267Z,13.30
2018-10-16T23:10:26.669Z,13.30
2018-10-16T23:12:29.095Z,13.20
2018-10-16T23:14:31.299Z,13.10
2018-10-16T23:16:33.497Z,13.00
2018-10-16T23:18:35.713Z,12.90
2018-10-16T23:20:37.974Z,12.90
2018-10-16T23:22:40.169Z,12.90
2018-10-16T23:24:42.397Z,13.00
2018-10-16T23:26:44.609Z,13.00
2018-10-16T23:28:46.877Z,13.00
2018-10-16T23:30:49.193Z,13.00
2018-10-16T23:32:52.007Z,13.00
2018-10-16T23:34:54.148Z,13.00
2018-10-16T23:36:56.387Z,13.00
2018-10-16T23:38:58.577Z,13.00
2018-10-16T23:41:00.799Z,13.10
2018-10-16T23:43:03.093Z,13.10
2018-10-16T23:45:05.476Z,13.10
2018-10-16T23:47:07.906Z,13.10
2018-10-16T23:49:10.344Z,12.90
2018-10-16T23:51:12.482Z,12.90
2018-10-16T23:53:14.916Z,12.80
2018-10-16T23:55:17.025Z,12.70
2018-10-16T23:57:19.340Z,12.60
2018-10-16T23:59:21.965Z,12.60
